Time;durP1;ratioP1;P1;durP2;ratioP2;P2;SDS_P1;SDS_P2;PMS_P1;PMS_P2;Temp;Humidity;BMP_temperature;BMP_pressure;BME280_temperature;BME280_humidity;BME280_pressure;Samples;Min_cycle;Max_cycle;Signal;HPM_P1;HPM_P2
2022/02/25 00:01:59;;;;;;;11.35;6.63;;;;;;;;;;6243642;23;20138;-71
2022/02/25 00:04:25;;;;;;;7.45;5.72;;;;;;;;;;6216510;23;20035;-71
2022/02/25 00:06:51;;;;;;;9.07;8.07;;;;;;;;;;6244032;23;20023;-72
2022/02/25 00:09:17;;;;;;;11.18;7.18;;;;;;;;;;6217865;23;20020;-70
2022/02/25 00:11:43;;;;;;;10.75;6.25;;;;;;;;;;6216189;23;20030;-71
2022/02/25 00:14:09;;;;;;;5.60;5.10;;;;;;;;;;6243509;23;20070;-72
2022/02/25 00:16:35;;;;;;;6.30;4.68;;;;;;;;;;6216402;23;20008;-73
2022/02/25 00:19:01;;;;;;;5.43;4.63;;;;;;;;;;6243297;23;20016;-72
2022/02/25 00:21:27;;;;;;;4.85;3.88;;;;;;;;;;6242964;23;20016;-71
2022/02/25 00:23:52;;;;;;;5.78;5.13;;;;;;;;;;6191705;23;20089;-71
2022/02/25 00:26:19;;;;;;;5.55;5.03;;;;;;;;;;6217025;23;20364;-71
2022/02/25 00:28:44;;;;;;;8.60;6.40;;;;;;;;;;6166560;23;20119;-72
2022/02/25 00:31:10;;;;;;;6.72;5.75;;;;;;;;;;6216693;23;20015;-73
2022/02/25 00:33:36;;;;;;;6.63;4.78;;;;;;;;;;6216438;23;20051;-71
2022/02/25 00:36:02;;;;;;;5.15;4.32;;;;;;;;;;6192066;23;20125;-71
2022/02/25 00:38:28;;;;;;;4.45;4.05;;;;;;;;;;6243696;23;20016;-71
2022/02/25 00:40:54;;;;;;;6.68;5.55;;;;;;;;;;6244154;23;20004;-71
2022/02/25 00:43:20;;;;;;;4.45;4.05;;;;;;;;;;6217074;23;20047;-72
2022/02/25 00:45:46;;;;;;;10.40;4.40;;;;;;;;;;6216008;23;20012;-71
2022/02/25 00:48:12;;;;;;;5.43;4.75;;;;;;;;;;6243499;23;20062;-72
2022/02/25 00:50:38;;;;;;;6.65;5.85;;;;;;;;;;6217040;23;20024;-72
2022/02/25 00:53:03;;;;;;;7.93;5.85;;;;;;;;;;6244259;23;20012;-72
2022/02/25 00:55:29;;;;;;;10.35;5.57;;;;;;;;;;6218466;23;20019;-72
2022/02/25 00:57:57;;;;;;;5.15;4.70;;;;;;;;;;6245208;23;20024;-72
2022/02/25 01:00:24;;;;;;;4.55;3.95;;;;;;;;;;6245953;23;20018;-72
2022/02/25 01:02:50;;;;;;;5.15;4.28;;;;;;;;;;6192196;23;20012;-72
2022/02/25 01:05:16;;;;;;;4.57;4.18;;;;;;;;;;6243881;23;20012;-73
2022/02/25 01:07:42;;;;;;;5.60;5.05;;;;;;;;;;6244533;23;20095;-73
2022/02/25 01:10:09;;;;;;;5.85;5.20;;;;;;;;;;6218123;23;20067;-72
2022/02/25 01:12:34;;;;;;;9.25;7.13;;;;;;;;;;6244828;23;20046;-71
2022/02/25 01:15:00;;;;;;;7.10;5.95;;;;;;;;;;6244804;23;20024;-71
2022/02/25 01:17:26;;;;;;;6.22;5.50;;;;;;;;;;6245431;23;20445;-72
2022/02/25 01:19:52;;;;;;;11.10;7.07;;;;;;;;;;6244087;23;20018;-71
2022/02/25 01:22:18;;;;;;;7.95;6.22;;;;;;;;;;6243682;23;20588;-72
2022/02/25 01:24:44;;;;;;;7.68;6.35;;;;;;;;;;6191257;23;20012;-71
2022/02/25 01:27:10;;;;;;;5.93;5.43;;;;;;;;;;6243916;23;20039;-72
2022/02/25 01:29:36;;;;;;;4.93;4.45;;;;;;;;;;6167978;23;20023;-72
2022/02/25 01:32:02;;;;;;;7.53;6.72;;;;;;;;;;6218005;23;20016;-73
2022/02/25 01:34:28;;;;;;;5.65;5.13;;;;;;;;;;6218460;23;20123;-72
2022/02/25 01:36:54;;;;;;;5.43;4.47;;;;;;;;;;6217780;23;20421;-70
2022/02/25 01:39:20;;;;;;;4.18;3.78;;;;;;;;;;6191123;23;20083;-71
2022/02/25 01:41:46;;;;;;;8.23;6.05;;;;;;;;;;6215581;23;20012;-72
2022/02/25 01:44:19;;;;;;;15.05;4.18;;;;;;;;;;6243198;23;20012;-72
2022/02/25 01:46:46;;;;;;;7.43;6.38;;;;;;;;;;6242807;23;20063;-72
2022/02/25 01:49:12;;;;;;;5.05;4.65;;;;;;;;;;6216232;23;20024;-71
2022/02/25 01:51:38;;;;;;;4.47;3.92;;;;;;;;;;6243477;23;20012;-73
2022/02/25 01:54:04;;;;;;;5.68;5.07;;;;;;;;;;6216390;23;20085;-74
2022/02/25 01:56:29;;;;;;;10.65;5.38;;;;;;;;;;6217186;23;20445;-72
2022/02/25 01:58:56;;;;;;;5.00;4.55;;;;;;;;;;6191453;23;20059;-73
2022/02/25 02:01:22;;;;;;;6.70;5.30;;;;;;;;;;6190640;23;20043;-71
2022/02/25 02:03:48;;;;;;;5.28;4.88;;;;;;;;;;6215767;23;20138;-72
2022/02/25 02:06:14;;;;;;;8.07;6.20;;;;;;;;;;6242230;23;20015;-72
2022/02/25 02:08:40;;;;;;;6.45;5.85;;;;;;;;;;6241714;23;20326;-71
2022/02/25 02:11:06;;;;;;;7.10;5.93;;;;;;;;;;6215273;23;20076;-73
2022/02/25 02:13:32;;;;;;;7.88;6.10;;;;;;;;;;6242632;23;20016;-74
2022/02/25 02:15:58;;;;;;;6.00;4.20;;;;;;;;;;6191015;23;20484;-72
2022/02/25 02:18:24;;;;;;;4.43;4.13;;;;;;;;;;6242621;23;20571;-72
2022/02/25 02:20:50;;;;;;;8.13;5.55;;;;;;;;;;6214863;23;20016;-71
2022/02/25 02:23:16;;;;;;;5.57;5.07;;;;;;;;;;6190633;23;20023;-72
2022/02/25 02:25:42;;;;;;;4.50;4.18;;;;;;;;;;6241833;23;20008;-73
2022/02/25 02:28:23;;;;;;;13.45;7.85;;;;;;;;;;6215702;23;20457;-71
2022/02/25 02:30:49;;;;;;;;;;;;;;;;;;6242375;23;20012;-73
2022/02/25 02:33:15;;;;;;;6.40;5.80;;;;;;;;;;6215556;23;20307;-71
2022/02/25 02:35:43;;;;;;;6.70;5.85;;;;;;;;;;6215728;23;20027;-72
2022/02/25 02:38:09;;;;;;;8.05;6.63;;;;;;;;;;6242189;23;20451;-73
2022/02/25 02:40:35;;;;;;;5.93;5.30;;;;;;;;;;6215164;23;20069;-71
2022/02/25 02:43:01;;;;;;;6.00;5.45;;;;;;;;;;6242154;23;20481;-71
2022/02/25 02:45:27;;;;;;;4.90;4.38;;;;;;;;;;6215432;23;20020;-71
2022/02/25 02:47:53;;;;;;;7.80;7.03;;;;;;;;;;6190642;23;20070;-72
2022/02/25 02:50:19;;;;;;;9.07;5.30;;;;;;;;;;6216230;23;20444;-71
2022/02/25 02:52:49;;;;;;;5.72;5.18;;;;;;;;;;6242366;23;20015;-71
2022/02/25 02:55:15;;;;;;;7.57;6.82;;;;;;;;;;6215365;23;20106;-72
2022/02/25 02:57:41;;;;;;;7.03;6.35;;;;;;;;;;6242207;23;20047;-72
2022/02/25 03:00:07;;;;;;;11.30;6.90;;;;;;;;;;6215665;23;20016;-73
2022/02/25 03:02:36;;;;;;;12.77;9.60;;;;;;;;;;6242181;23;20031;-72
2022/02/25 03:05:02;;;;;;;7.88;5.68;;;;;;;;;;6165898;23;20024;-72
2022/02/25 03:07:28;;;;;;;6.65;5.57;;;;;;;;;;6242417;23;20012;-72
2022/02/25 03:09:54;;;;;;;12.68;9.40;;;;;;;;;;6241833;23;20106;-72
2022/02/25 03:12:20;;;;;;;11.80;8.23;;;;;;;;;;6190148;23;20082;-72
2022/02/25 03:14:47;;;;;;;5.75;5.07;;;;;;;;;;6214380;23;20385;-72
2022/02/25 03:17:14;;;;;;;6.70;5.68;;;;;;;;;;6242144;23;20130;-71
2022/02/25 03:19:40;;;;;;;9.40;7.93;;;;;;;;;;6214874;23;20015;-71
2022/02/25 03:22:06;;;;;;;8.18;6.15;;;;;;;;;;6215567;23;20004;-72
2022/02/25 03:24:52;;;;;;;13.90;9.80;;;;;;;;;;6242117;23;20078;-71
2022/02/25 03:27:18;;;;;;;11.85;8.10;;;;;;;;;;6241949;23;20008;-71
2022/02/25 03:29:45;;;;;;;9.88;8.32;;;;;;;;;;6215042;23;20099;-71
2022/02/25 03:32:11;;;;;;;12.20;9.05;;;;;;;;;;6215362;23;20012;-72
2022/02/25 03:34:37;;;;;;;10.85;7.85;;;;;;;;;;6241748;23;20077;-71
2022/02/25 03:37:03;;;;;;;14.82;7.95;;;;;;;;;;6242020;23;20057;-73
2022/02/25 03:39:29;;;;;;;7.95;7.18;;;;;;;;;;6242054;23;20089;-73
2022/02/25 03:41:55;;;;;;;9.43;8.23;;;;;;;;;;6241756;23;20070;-71
2022/02/25 03:44:21;;;;;;;8.73;6.75;;;;;;;;;;6215412;23;20019;-72
2022/02/25 03:46:47;;;;;;;8.27;7.18;;;;;;;;;;6241648;23;20007;-72
2022/02/25 03:49:14;;;;;;;10.18;7.15;;;;;;;;;;6215529;23;20023;-72
2022/02/25 03:51:40;;;;;;;15.80;9.93;;;;;;;;;;6189986;23;20019;-72
2022/02/25 03:54:06;;;;;;;13.48;9.70;;;;;;;;;;6242061;23;20024;-71
2022/02/25 03:56:32;;;;;;;8.88;7.75;;;;;;;;;;6190090;23;20016;-72
2022/02/25 03:58:58;;;;;;;13.40;8.70;;;;;;;;;;6215477;23;20024;-72
2022/02/25 04:01:24;;;;;;;16.63;8.38;;;;;;;;;;6190223;23;20008;-72
2022/02/25 04:03:50;;;;;;;8.00;7.18;;;;;;;;;;6190168;23;20636;-72
2022/02/25 04:06:16;;;;;;;16.80;10.63;;;;;;;;;;6242145;23;20051;-73
2022/02/25 04:08:43;;;;;;;9.65;8.20;;;;;;;;;;6215081;23;20012;-72
2022/02/25 04:11:09;;;;;;;16.98;10.85;;;;;;;;;;6241927;23;20015;-72
2022/02/25 04:13:36;;;;;;;12.68;8.75;;;;;;;;;;6216668;23;20150;-73
2022/02/25 04:16:01;;;;;;;11.60;9.40;;;;;;;;;;6243196;23;20532;-73
2022/02/25 04:18:27;;;;;;;8.43;7.53;;;;;;;;;;6191582;23;20054;-72
2022/02/25 04:20:53;;;;;;;14.23;9.25;;;;;;;;;;6243355;23;20360;-73
2022/02/25 04:23:19;;;;;;;8.52;7.65;;;;;;;;;;6217239;23;20012;-72
2022/02/25 04:25:45;;;;;;;13.15;8.73;;;;;;;;;;6243187;23;20095;-72
2022/02/25 04:28:11;;;;;;;12.70;7.97;;;;;;;;;;6217220;23;20015;-72
2022/02/25 04:30:37;;;;;;;9.57;8.45;;;;;;;;;;6243467;23;20008;-73
2022/02/25 04:33:03;;;;;;;17.77;9.80;;;;;;;;;;6216478;23;20035;-71
2022/02/25 04:35:29;;;;;;;10.32;9.15;;;;;;;;;;6191970;23;20090;-71
2022/02/25 04:37:55;;;;;;;16.17;8.50;;;;;;;;;;6216645;23;20482;-72
2022/02/25 04:40:21;;;;;;;11.25;9.95;;;;;;;;;;6244053;23;20024;-71
2022/02/25 04:42:47;;;;;;;9.32;7.30;;;;;;;;;;6216836;23;20036;-72
2022/02/25 04:45:13;;;;;;;6.68;5.93;;;;;;;;;;6192461;23;20016;-72
2022/02/25 04:47:39;;;;;;;9.35;7.88;;;;;;;;;;6192108;23;20035;-73
2022/02/25 04:50:06;;;;;;;16.23;12.88;;;;;;;;;;6244217;23;20023;-72
2022/02/25 04:52:32;;;;;;;13.07;10.77;;;;;;;;;;6192438;23;20613;-72
2022/02/25 04:54:58;;;;;;;13.55;8.68;;;;;;;;;;6217271;23;20020;-73
2022/02/25 04:57:24;;;;;;;18.70;10.55;;;;;;;;;;6217465;23;20415;-72
2022/02/25 04:59:50;;;;;;;14.85;10.60;;;;;;;;;;6244494;23;20047;-73
2022/02/25 05:02:16;;;;;;;15.75;9.10;;;;;;;;;;6244226;23;20015;-72
2022/02/25 05:04:42;;;;;;;14.07;9.40;;;;;;;;;;6216959;23;20016;-72
2022/02/25 05:07:08;;;;;;;16.73;7.75;;;;;;;;;;6216755;23;20086;-74
2022/02/25 05:09:35;;;;;;;17.15;9.75;;;;;;;;;;6244020;23;20091;-73
2022/02/25 05:12:01;;;;;;;10.57;9.45;;;;;;;;;;6217541;23;20119;-73
2022/02/25 05:22:40;;;;;;;9.98;8.15;;;;;;;;;;6242339;23;20015;-74
2022/02/25 05:25:06;;;;;;;15.30;10.73;;;;;;;;;;6241544;23;20022;-74
2022/02/25 05:27:32;;;;;;;13.82;10.85;;;;;;;;;;6242587;23;20012;-75
2022/02/25 05:30:00;;;;;;;10.95;9.60;;;;;;;;;;6191633;23;20055;-75
2022/02/25 05:32:26;;;;;;;15.45;9.45;;;;;;;;;;6242270;23;20463;-75
2022/02/25 05:34:52;;;;;;;13.98;9.95;;;;;;;;;;6243249;23;20028;-74
2022/02/25 05:37:18;;;;;;;11.77;10.20;;;;;;;;;;6243674;23;20095;-75
2022/02/25 05:39:44;;;;;;;12.13;9.45;;;;;;;;;;6216618;23;20019;-75
2022/02/25 05:42:10;;;;;;;9.38;7.63;;;;;;;;;;6243276;23;20100;-75
2022/02/25 05:44:36;;;;;;;12.73;9.55;;;;;;;;;;6216483;23;20039;-74
2022/02/25 05:47:04;;;;;;;12.32;10.32;;;;;;;;;;6242975;23;20563;-75
2022/02/25 05:49:30;;;;;;;12.85;9.77;;;;;;;;;;6243490;23;20066;-75
2022/02/25 05:51:56;;;;;;;10.68;9.48;;;;;;;;;;6216017;23;20024;-74
2022/02/25 05:54:22;;;;;;;11.40;9.13;;;;;;;;;;6217362;23;20020;-74
2022/02/25 05:56:48;;;;;;;11.30;10.02;;;;;;;;;;6216026;23;20107;-75
2022/02/25 05:59:14;;;;;;;9.93;8.07;;;;;;;;;;6244688;23;20043;-74
2022/02/25 06:01:40;;;;;;;12.35;9.60;;;;;;;;;;6244366;23;20019;-75
2022/02/25 06:04:06;;;;;;;11.02;9.68;;;;;;;;;;6217334;23;20012;-74
2022/02/25 06:06:32;;;;;;;12.40;8.15;;;;;;;;;;6191185;23;20031;-73
2022/02/25 06:08:58;;;;;;;12.88;10.27;;;;;;;;;;6243123;23;20416;-74
2022/02/25 06:11:24;;;;;;;11.98;10.18;;;;;;;;;;6216290;23;20014;-76
2022/02/25 06:13:51;;;;;;;15.63;9.48;;;;;;;;;;6243076;23;20016;-74
2022/02/25 06:16:17;;;;;;;11.50;9.73;;;;;;;;;;6216254;23;20019;-75
2022/02/25 06:18:43;;;;;;;14.73;9.88;;;;;;;;;;6243016;23;20083;-74
2022/02/25 06:21:09;;;;;;;17.17;9.10;;;;;;;;;;6242702;23;20016;-73
2022/02/25 06:23:35;;;;;;;16.65;10.40;;;;;;;;;;6216560;23;20015;-75
2022/02/25 06:26:01;;;;;;;12.90;9.55;;;;;;;;;;6216321;23;20066;-75
2022/02/25 06:28:27;;;;;;;13.10;9.65;;;;;;;;;;6191061;23;20015;-73
2022/02/25 06:30:55;;;;;;;10.50;7.03;;;;;;;;;;6242723;23;20016;-74
2022/02/25 06:33:20;;;;;;;11.80;10.60;;;;;;;;;;6217098;23;20008;-73
2022/02/25 06:35:46;;;;;;;14.57;11.38;;;;;;;;;;6216103;23;20073;-75
2022/02/25 06:38:12;;;;;;;11.70;9.13;;;;;;;;;;6243013;23;20087;-72
2022/02/25 06:40:39;;;;;;;11.82;9.48;;;;;;;;;;6217254;23;20452;-73
2022/02/25 06:43:04;;;;;;;13.27;10.65;;;;;;;;;;6242725;23;20504;-73
2022/02/25 06:45:30;;;;;;;12.70;10.48;;;;;;;;;;6216359;23;20047;-73
2022/02/25 06:47:56;;;;;;;11.10;8.93;;;;;;;;;;6242232;23;20019;-73
2022/02/25 06:50:22;;;;;;;14.63;10.27;;;;;;;;;;6216272;23;20016;-74
2022/02/25 06:52:48;;;;;;;14.77;11.73;;;;;;;;;;6242654;23;20435;-73
2022/02/25 06:55:14;;;;;;;17.15;12.00;;;;;;;;;;6236038;23;20026;-73
2022/02/25 06:57:41;;;;;;;14.93;11.90;;;;;;;;;;6239690;23;20070;-72
2022/02/25 07:00:07;;;;;;;14.88;12.52;;;;;;;;;;6188331;23;20012;-71
2022/02/25 07:02:33;;;;;;;17.98;12.93;;;;;;;;;;6240255;23;20019;-72
2022/02/25 07:04:59;;;;;;;16.95;11.90;;;;;;;;;;6240396;23;20489;-73
2022/02/25 07:07:25;;;;;;;16.38;13.98;;;;;;;;;;6240193;23;20012;-73
2022/02/25 07:09:51;;;;;;;19.55;13.27;;;;;;;;;;6188300;23;20084;-73
2022/02/25 07:12:19;;;;;;;19.75;14.00;;;;;;;;;;6213566;23;20008;-73
2022/02/25 07:14:45;;;;;;;15.02;13.48;;;;;;;;;;6241067;23;20115;-71
2022/02/25 07:17:11;;;;;;;17.67;12.25;;;;;;;;;;6239267;23;20012;-72
2022/02/25 07:19:37;;;;;;;18.27;12.60;;;;;;;;;;6214732;23;20016;-72
2022/02/25 07:22:03;;;;;;;14.52;11.88;;;;;;;;;;6240404;23;20014;-73
2022/02/25 07:24:29;;;;;;;13.25;11.90;;;;;;;;;;6215565;23;20020;-72
2022/02/25 07:26:55;;;;;;;19.27;12.68;;;;;;;;;;6240056;23;20015;-72
2022/02/25 07:29:21;;;;;;;16.05;10.07;;;;;;;;;;6241484;23;20107;-72
2022/02/25 07:31:47;;;;;;;11.60;10.00;;;;;;;;;;6239874;23;20039;-73
2022/02/25 07:34:15;;;;;;;14.02;11.77;;;;;;;;;;6214240;23;20043;-73
2022/02/25 07:36:41;;;;;;;12.27;9.38;;;;;;;;;;6240567;23;20012;-72
2022/02/25 07:39:07;;;;;;;16.23;12.93;;;;;;;;;;6238092;23;20012;-73
2022/02/25 07:41:33;;;;;;;9.82;8.90;;;;;;;;;;6238462;23;20027;-72
2022/02/25 07:43:59;;;;;;;13.02;11.73;;;;;;;;;;6213984;23;20024;-72
2022/02/25 07:46:25;;;;;;;13.77;11.20;;;;;;;;;;6240136;23;20008;-72
2022/02/25 07:48:51;;;;;;;12.52;9.80;;;;;;;;;;6241443;23;20016;-73
2022/02/25 07:51:17;;;;;;;15.95;12.02;;;;;;;;;;6242094;23;20004;-73
2022/02/25 07:53:45;;;;;;;13.10;11.40;;;;;;;;;;6242818;23;20012;-73
2022/02/25 07:56:11;;;;;;;14.63;13.27;;;;;;;;;;6214666;23;20026;-72
2022/02/25 07:58:38;;;;;;;14.27;12.05;;;;;;;;;;6190876;23;20019;-72
2022/02/25 08:01:05;;;;;;;11.27;10.13;;;;;;;;;;6242627;23;20039;-73
2022/02/25 08:03:31;;;;;;;14.15;12.35;;;;;;;;;;6242132;23;20036;-72
2022/02/25 08:05:57;;;;;;;16.95;11.55;;;;;;;;;;6241969;23;20073;-72
2022/02/25 08:08:22;;;;;;;15.40;11.65;;;;;;;;;;6215601;23;20012;-73
2022/02/25 08:10:49;;;;;;;12.73;11.27;;;;;;;;;;6242030;23;20054;-73
2022/02/25 08:13:15;;;;;;;16.65;11.45;;;;;;;;;;6190192;23;20500;-72
2022/02/25 08:15:42;;;;;;;14.57;11.02;;;;;;;;;;6242241;23;20024;-72
2022/02/25 08:18:08;;;;;;;16.60;10.15;;;;;;;;;;6214887;23;20601;-72
2022/02/25 08:20:34;;;;;;;16.80;12.02;;;;;;;;;;6215824;23;20019;-72
2022/02/25 08:23:02;;;;;;;13.82;10.85;;;;;;;;;;6189967;23;20054;-72
2022/02/25 08:25:30;;;;;;;10.80;9.70;;;;;;;;;;6242074;23;20116;-73
2022/02/25 08:27:57;;;;;;;10.38;9.23;;;;;;;;;;6241336;23;20047;-70
2022/02/25 08:30:22;;;;;;;11.57;10.02;;;;;;;;;;6242075;23;20108;-73
2022/02/25 08:32:49;;;;;;;10.52;9.50;;;;;;;;;;6189615;23;20464;-72
2022/02/25 08:35:15;;;;;;;12.25;10.20;;;;;;;;;;6165002;23;20024;-71
2022/02/25 08:37:42;;;;;;;10.77;9.07;;;;;;;;;;6216229;23;20016;-71
2022/02/25 08:40:08;;;;;;;12.32;8.55;;;;;;;;;;6217080;23;20069;-72
2022/02/25 08:42:35;;;;;;;9.30;8.43;;;;;;;;;;6244051;23;20008;-73
2022/02/25 08:45:03;;;;;;;11.48;8.73;;;;;;;;;;6216625;23;20016;-74
2022/02/25 08:47:29;;;;;;;9.38;8.60;;;;;;;;;;6191738;23;20035;-74
2022/02/25 08:49:55;;;;;;;10.85;9.43;;;;;;;;;;6241734;23;20040;-73
2022/02/25 08:52:21;;;;;;;11.65;10.52;;;;;;;;;;6214480;23;20008;-72
2022/02/25 08:54:47;;;;;;;11.65;9.60;;;;;;;;;;6241349;23;20031;-73
2022/02/25 08:57:12;;;;;;;11.13;7.75;;;;;;;;;;6211130;23;20403;-73
2022/02/25 08:59:39;;;;;;;12.90;9.52;;;;;;;;;;6209927;23;20110;-72
2022/02/25 09:02:08;;;;;;;10.82;9.32;;;;;;;;;;6209011;23;20013;-73
2022/02/25 09:04:34;;;;;;;10.63;8.52;;;;;;;;;;6209152;23;20460;-72
2022/02/25 09:07:00;;;;;;;8.30;7.47;;;;;;;;;;6210343;23;20012;-73
2022/02/25 09:09:26;;;;;;;8.30;7.60;;;;;;;;;;6211487;23;20404;-72
2022/02/25 09:11:53;;;;;;;9.23;8.18;;;;;;;;;;6210588;23;20012;-72
2022/02/25 09:14:18;;;;;;;9.05;8.15;;;;;;;;;;6208628;23;20020;-72
2022/02/25 09:16:45;;;;;;;8.48;7.68;;;;;;;;;;6209221;23;20035;-74
2022/02/25 09:19:10;;;;;;;12.68;7.68;;;;;;;;;;6210355;23;20016;-74
2022/02/25 09:21:36;;;;;;;9.70;8.65;;;;;;;;;;6209661;23;20516;-75
2022/02/25 09:30:34;;;;;;;9.75;8.73;;;;;;;;;;6209081;23;20092;-72
2022/02/25 09:33:01;;;;;;;16.05;8.48;;;;;;;;;;6210263;23;20055;-72
2022/02/25 09:35:27;;;;;;;9.57;8.77;;;;;;;;;;6209720;23;20025;-72
2022/02/25 09:37:53;;;;;;;10.55;9.55;;;;;;;;;;6209635;23;20014;-72
2022/02/25 09:40:20;;;;;;;8.55;7.70;;;;;;;;;;6210233;23;20012;-72
2022/02/25 09:42:46;;;;;;;11.85;8.98;;;;;;;;;;6210578;23;20092;-72
2022/02/25 09:45:13;;;;;;;9.32;8.02;;;;;;;;;;6209883;23;20021;-74
2022/02/25 09:47:39;;;;;;;14.77;7.78;;;;;;;;;;6209042;23;20008;-73
2022/02/25 09:50:06;;;;;;;8.52;7.78;;;;;;;;;;6159028;23;20067;-73
2022/02/25 09:52:33;;;;;;;7.82;7.10;;;;;;;;;;6209238;23;20453;-73
2022/02/25 09:54:59;;;;;;;10.82;8.02;;;;;;;;;;6184413;23;20024;-72
2022/02/25 09:57:25;;;;;;;8.13;7.43;;;;;;;;;;6208472;23;20094;-77
2022/02/25 09:59:51;;;;;;;12.73;7.28;;;;;;;;;;6210430;23;20027;-73
2022/02/25 10:02:19;;;;;;;7.53;6.70;;;;;;;;;;6209370;23;20009;-72
2022/02/25 10:04:45;;;;;;;11.15;9.45;;;;;;;;;;6211758;23;20023;-72
2022/02/25 10:07:24;;;;;;;9.98;9.07;;;;;;;;;;6210632;23;20009;-72
2022/02/25 10:09:51;;;;;;;7.85;7.07;;;;;;;;;;6211057;23;20020;-71
2022/02/25 10:12:17;;;;;;;7.65;6.82;;;;;;;;;;6210120;23;20022;-72
2022/02/25 10:14:44;;;;;;;8.15;7.35;;;;;;;;;;6209775;23;20099;-72
2022/02/25 10:17:10;;;;;;;6.30;5.70;;;;;;;;;;6210202;23;20424;-71
2022/02/25 10:19:36;;;;;;;7.25;6.55;;;;;;;;;;6209940;23;20090;-72
2022/02/25 10:22:14;;;;;;;7.47;6.70;;;;;;;;;;6209452;23;20516;-71
2022/02/25 10:24:49;;;;;;;5.93;5.38;;;;;;;;;;6208436;23;20142;-73
2022/02/25 10:27:16;;;;;;;8.25;7.50;;;;;;;;;;6182814;23;20115;-72
2022/02/25 10:30:22;;;;;;;8.40;7.60;;;;;;;;;;6208463;23;20020;-71
2022/02/25 10:32:48;;;;;;;5.25;4.85;;;;;;;;;;6207541;23;20048;-72
2022/02/25 10:35:30;;;;;;;7.68;6.88;;;;;;;;;;6208101;23;20027;-73
2022/02/25 10:37:56;;;;;;;;;;;;;;;;;;6209848;23;20524;-72
2022/02/25 10:40:48;;;;;;;5.93;5.50;;;;;;;;;;6211345;23;19907;-70
2022/02/25 10:43:34;;;;;;;8.15;7.35;;;;;;;;;;6208963;23;20425;-73
2022/02/25 10:46:12;;;;;;;7.57;5.35;;;;;;;;;;6204057;23;20020;-72
2022/02/25 10:48:38;;;;;;;6.35;5.75;;;;;;;;;;6208642;23;20099;-72
2022/02/25 10:51:05;;;;;;;9.30;8.27;;;;;;;;;;6209596;23;20012;-71
2022/02/25 10:53:32;;;;;;;6.90;6.10;;;;;;;;;;6209706;23;20357;-72
2022/02/25 10:56:06;;;;;;;7.38;6.78;;;;;;;;;;6210666;23;20024;-71
2022/02/25 10:58:41;;;;;;;8.15;7.45;;;;;;;;;;6228837;23;20091;-71
2022/02/25 11:01:07;;;;;;;7.68;6.88;;;;;;;;;;6239628;23;20078;-71
2022/02/25 11:03:33;;;;;;;6.75;6.07;;;;;;;;;;6212928;23;20027;-71
2022/02/25 11:05:59;;;;;;;8.55;4.82;;;;;;;;;;6240087;23;20496;-72
2022/02/25 11:08:25;;;;;;;8.07;7.00;;;;;;;;;;6239240;23;20019;-72
2022/02/25 11:10:51;;;;;;;7.13;5.90;;;;;;;;;;6239935;23;20012;-72
2022/02/25 11:13:18;;;;;;;8.60;5.35;;;;;;;;;;6212568;23;20440;-73
2022/02/25 11:15:44;;;;;;;8.13;7.43;;;;;;;;;;6239996;23;20055;-73
2022/02/25 11:18:13;;;;;;;6.63;5.30;;;;;;;;;;6212004;23;20070;-71
2022/02/25 11:20:43;;;;;;;5.50;5.00;;;;;;;;;;6239974;23;20039;-71
2022/02/25 11:23:10;;;;;;;6.35;5.75;;;;;;;;;;6212808;23;20012;-72
2022/02/25 11:25:37;;;;;;;7.00;6.28;;;;;;;;;;6188474;23;20089;-72
2022/02/25 11:28:03;;;;;;;6.57;6.00;;;;;;;;;;6239782;22;20058;-72
2022/02/25 11:30:38;;;;;;;9.13;8.05;;;;;;;;;;6239763;23;20456;-71
2022/02/25 11:33:07;;;;;;;9.18;6.20;;;;;;;;;;6213241;23;20130;-71
2022/02/25 11:35:34;;;;;;;6.03;5.38;;;;;;;;;;6239542;23;20020;-71
2022/02/25 11:38:07;;;;;;;5.97;4.22;;;;;;;;;;6163196;23;20158;-72
2022/02/25 11:40:45;;;;;;;7.38;6.63;;;;;;;;;;6212621;23;20016;-71
2022/02/25 11:43:11;;;;;;;4.47;4.18;;;;;;;;;;6239390;23;20012;-71
2022/02/25 11:46:07;;;;;;;7.57;6.72;;;;;;;;;;6239809;23;20099;-70
2022/02/25 11:48:43;;;;;;;4.63;4.32;;;;;;;;;;6208094;23;20085;-71
2022/02/25 11:51:29;;;;;;;6.75;6.22;;;;;;;;;;6239552;23;20016;-72
2022/02/25 11:54:15;;;;;;;9.68;4.93;;;;;;;;;;6213590;23;20090;-71
2022/02/25 11:56:41;;;;;;;6.95;6.35;;;;;;;;;;6239387;23;20018;-71
2022/02/25 11:59:08;;;;;;;4.70;4.30;;;;;;;;;;6239469;23;20465;-71
2022/02/25 12:01:34;;;;;;;5.97;5.47;;;;;;;;;;6212561;23;20016;-71
2022/02/25 12:04:05;;;;;;;5.10;4.60;;;;;;;;;;6212931;23;20513;-70
2022/02/25 12:06:49;;;;;;;6.05;5.55;;;;;;;;;;6212834;23;20069;-70
2022/02/25 12:09:15;;;;;;;4.90;4.50;;;;;;;;;;6239127;23;20012;-72
2022/02/25 12:11:45;;;;;;;5.68;5.28;;;;;;;;;;6212879;23;20091;-70
2022/02/25 12:14:11;;;;;;;6.13;5.57;;;;;;;;;;6212694;23;20020;-72
2022/02/25 12:16:37;;;;;;;6.80;6.20;;;;;;;;;;6213488;23;20058;-69
2022/02/25 12:19:07;;;;;;;5.18;4.78;;;;;;;;;;6187846;23;20016;-71
2022/02/25 12:21:40;;;;;;;6.28;5.68;;;;;;;;;;6239307;23;20012;-71
2022/02/25 12:24:09;;;;;;;5.97;5.13;;;;;;;;;;6239760;23;20095;-72
2022/02/25 12:26:38;;;;;;;5.18;4.75;;;;;;;;;;6212729;23;20019;-72
2022/02/25 12:29:17;;;;;;;6.28;4.45;;;;;;;;;;6239510;23;20063;-70
2022/02/25 12:31:46;;;;;;;6.70;4.50;;;;;;;;;;6212912;23;20016;-70
2022/02/25 12:34:20;;;;;;;5.03;4.53;;;;;;;;;;6213540;23;20464;-69
2022/02/25 12:36:49;;;;;;;4.55;4.00;;;;;;;;;;6215221;23;20015;-71
2022/02/25 12:39:44;;;;;;;5.53;4.95;;;;;;;;;;6240834;23;20016;-71
2022/02/25 12:42:10;;;;;;;6.80;4.47;;;;;;;;;;6132835;23;20016;-71
2022/02/25 12:44:41;;;;;;;14.10;5.40;;;;;;;;;;6241864;23;20352;-71
2022/02/25 12:47:10;;;;;;;6.13;5.07;;;;;;;;;;6240254;23;20429;-71
2022/02/25 12:49:37;;;;;;;5.60;5.10;;;;;;;;;;6213261;23;20095;-71
2022/02/25 12:52:04;;;;;;;5.28;4.78;;;;;;;;;;6240724;23;20015;-69
2022/02/25 12:54:30;;;;;;;5.53;5.03;;;;;;;;;;6239282;23;20031;-70
2022/02/25 12:56:57;;;;;;;5.13;3.92;;;;;;;;;;6212734;23;20012;-70
2022/02/25 12:59:33;;;;;;;6.78;5.82;;;;;;;;;;6237562;23;20035;-70
2022/02/25 13:01:59;;;;;;;7.57;5.57;;;;;;;;;;6238501;23;20154;-70
2022/02/25 13:04:26;;;;;;;8.13;6.53;;;;;;;;;;6211105;23;20528;-70
2022/02/25 13:06:53;;;;;;;7.82;6.07;;;;;;;;;;6239098;23;20043;-70
2022/02/25 13:09:20;;;;;;;5.35;4.85;;;;;;;;;;6240006;23;20507;-70
2022/02/25 13:11:50;;;;;;;5.38;4.43;;;;;;;;;;6214227;23;20016;-69
2022/02/25 13:14:18;;;;;;;7.45;6.78;;;;;;;;;;6213992;23;20024;-69
2022/02/25 13:17:02;;;;;;;5.57;5.07;;;;;;;;;;6189609;23;20012;-70
2022/02/25 13:19:29;;;;;;;5.68;5.05;;;;;;;;;;6241147;23;20039;-70
2022/02/25 13:22:03;;;;;;;8.85;6.07;;;;;;;;;;6214363;23;20016;-70
2022/02/25 13:24:31;;;;;;;5.03;4.55;;;;;;;;;;6240227;23;20107;-70
2022/02/25 13:26:58;;;;;;;4.80;4.28;;;;;;;;;;6213990;23;20016;-70
2022/02/25 13:29:24;;;;;;;6.93;5.50;;;;;;;;;;6189078;23;20008;-70
2022/02/25 13:32:01;;;;;;;4.22;3.92;;;;;;;;;;6241253;23;20012;-70
2022/02/25 13:34:27;;;;;;;5.55;4.38;;;;;;;;;;6241949;23;20023;-70
2022/02/25 13:36:53;;;;;;;5.57;4.85;;;;;;;;;;6215966;23;20012;-70
2022/02/25 13:39:26;;;;;;;11.20;4.68;;;;;;;;;;6190424;23;20364;-70
2022/02/25 13:41:52;;;;;;;5.35;4.85;;;;;;;;;;6242621;22;20078;-70
2022/02/25 13:44:18;;;;;;;5.35;4.85;;;;;;;;;;6189976;23;20457;-70
2022/02/25 13:46:44;;;;;;;5.03;4.53;;;;;;;;;;6242595;23;20012;-70
2022/02/25 13:54:42;;;;;;;3.42;3.13;;;;;;;;;;6242621;23;20042;-70
2022/02/25 13:57:12;;;;;;;4.13;3.83;;;;;;;;;;6216231;23;20095;-70
2022/02/25 14:00:04;;;;;;;4.10;3.65;;;;;;;;;;6216295;23;20073;-70
2022/02/25 14:02:39;;;;;;;5.43;5.03;;;;;;;;;;6194038;23;20076;-70
2022/02/25 14:05:07;;;;;;;5.45;4.50;;;;;;;;;;6191486;23;20038;-70
2022/02/25 14:07:39;;;;;;;4.40;4.03;;;;;;;;;;6242131;23;20123;-70
2022/02/25 14:10:07;;;;;;;4.50;4.10;;;;;;;;;;6215703;23;20012;-68
2022/02/25 14:12:41;;;;;;;3.83;3.53;;;;;;;;;;6242250;23;20387;-70
2022/02/25 14:15:11;;;;;;;4.00;3.70;;;;;;;;;;6242169;23;20020;-70
2022/02/25 14:17:36;;;;;;;5.00;4.60;;;;;;;;;;6241939;23;20460;-70
2022/02/25 14:20:03;;;;;;;5.05;3.70;;;;;;;;;;6242470;23;20019;-70
2022/02/25 14:22:29;;;;;;;5.50;3.95;;;;;;;;;;6241927;23;20032;-70
2022/02/25 14:24:55;;;;;;;5.97;4.88;;;;;;;;;;6215265;23;20090;-69
2022/02/25 14:27:21;;;;;;;4.30;3.90;;;;;;;;;;6215001;23;20413;-70
2022/02/25 14:30:02;;;;;;;3.97;3.67;;;;;;;;;;6215329;23;20008;-70
2022/02/25 14:32:29;;;;;;;5.32;3.33;;;;;;;;;;6190186;23;20582;-70
2022/02/25 14:34:55;;;;;;;5.80;5.28;;;;;;;;;;6242422;23;20027;-70
2022/02/25 14:37:30;;;;;;;6.47;5.97;;;;;;;;;;6241950;23;20016;-70
2022/02/25 14:39:58;;;;;;;5.93;4.93;;;;;;;;;;6165699;23;20047;-69
2022/02/25 14:42:23;;;;;;;5.50;5.10;;;;;;;;;;6215132;23;20015;-70
2022/02/25 14:44:50;;;;;;;4.38;3.97;;;;;;;;;;6241905;23;20457;-70
2022/02/25 14:47:16;;;;;;;6.25;4.55;;;;;;;;;;6241439;23;20485;-70
2022/02/25 14:49:42;;;;;;;4.78;4.38;;;;;;;;;;6215108;23;20048;-70
2022/02/25 14:52:09;;;;;;;5.25;4.78;;;;;;;;;;6190449;23;20107;-69
2022/02/25 14:54:35;;;;;;;5.85;4.88;;;;;;;;;;6240932;23;20472;-71
2022/02/25 14:57:02;;;;;;;4.15;3.85;;;;;;;;;;6241520;23;20016;-70
2022/02/25 14:59:28;;;;;;;4.75;4.35;;;;;;;;;;6241462;23;20784;-70